createdAt,value
2023-11-07T00:01:43.164Z,3.75
2023-11-07T00:04:33.914Z,4.68
2023-11-07T00:07:24.664Z,6.78
2023-11-07T00:10:15.437Z,4.40
2023-11-07T00:13:06.125Z,4.40
2023-11-07T00:15:56.807Z,2.75
2023-11-07T00:18:48.410Z,5.85
2023-11-07T00:21:39.242Z,7.15
2023-11-07T00:24:30.286Z,10.13
2023-11-07T00:27:20.983Z,3.25
2023-11-07T00:30:12.480Z,4.80
2023-11-07T00:33:03.298Z,3.85
2023-11-07T00:35:54.186Z,6.22
2023-11-07T00:38:45.564Z,6.43
2023-11-07T00:41:36.417Z,4.45
2023-11-07T00:44:27.342Z,7.85
2023-11-07T00:47:18.145Z,1.90
2023-11-07T00:50:11.776Z,3.30
2023-11-07T00:53:02.631Z,4.97
2023-11-07T00:55:53.372Z,7.03
2023-11-07T00:58:44.312Z,6.95
2023-11-07T01:01:35.032Z,4.38
2023-11-07T01:04:25.953Z,6.85
2023-11-07T01:07:16.788Z,6.10
2023-11-07T01:10:08.687Z,2.40
2023-11-07T01:12:59.980Z,7.70
2023-11-07T01:15:50.696Z,8.32
2023-11-07T01:18:41.618Z,7.90
2023-11-07T01:21:32.417Z,10.40
2023-11-07T01:24:23.160Z,2.20
2023-11-07T01:27:13.971Z,6.80
2023-11-07T01:30:08.565Z,4.38
2023-11-07T01:32:59.893Z,2.85
2023-11-07T01:35:50.653Z,8.55
2023-11-07T01:38:41.432Z,3.38
2023-11-07T01:41:32.400Z,2.70
2023-11-07T01:44:29.805Z,8.57
2023-11-07T01:47:26.443Z,3.13
2023-11-07T01:50:17.332Z,5.28
2023-11-07T01:53:08.639Z,5.30
2023-11-07T01:56:00.197Z,2.67
2023-11-07T01:58:54.291Z,2.95
2023-11-07T02:01:48.714Z,4.28
2023-11-07T02:04:40.012Z,8.55
2023-11-07T02:07:31.509Z,5.38
2023-11-07T02:10:22.852Z,4.35
2023-11-07T02:13:13.542Z,5.20
2023-11-07T02:16:04.822Z,6.15
2023-11-07T02:18:57.295Z,6.13
2023-11-07T02:21:49.154Z,3.38
2023-11-07T02:24:40.377Z,4.22
2023-11-07T02:27:31.170Z,2.63
2023-11-07T02:30:23.353Z,4.50
2023-11-07T02:33:15.609Z,7.43
2023-11-07T02:36:07.097Z,2.35
2023-11-07T02:38:57.965Z,3.97
2023-11-07T02:41:49.024Z,4.80
2023-11-07T02:44:39.986Z,5.07
2023-11-07T02:47:31.126Z,10.77
2023-11-07T02:50:21.949Z,8.35
2023-11-07T02:53:12.854Z,6.65
2023-11-07T02:56:03.863Z,6.32
2023-11-07T02:58:55.650Z,5.97
2023-11-07T03:01:46.336Z,6.20
2023-11-07T03:04:37.052Z,6.47
2023-11-07T03:07:27.752Z,9.18
2023-11-07T03:10:18.470Z,9.52
2023-11-07T03:13:09.784Z,5.60
2023-11-07T03:16:00.565Z,4.78
2023-11-07T03:18:51.473Z,6.50
2023-11-07T03:21:42.212Z,7.50
2023-11-07T03:24:32.952Z,4.15
2023-11-07T03:27:23.640Z,6.35
2023-11-07T03:30:14.399Z,5.07
2023-11-07T03:33:05.129Z,7.03
2023-11-07T03:35:58.326Z,4.70
2023-11-07T03:38:49.525Z,6.13
2023-11-07T03:41:42.510Z,6.18
2023-11-07T03:44:35.064Z,9.05
2023-11-07T03:47:25.862Z,3.78
2023-11-07T03:50:16.710Z,7.20
2023-11-07T03:53:07.409Z,8.82
2023-11-07T03:55:59.562Z,4.85
2023-11-07T03:58:50.320Z,4.20
2023-11-07T04:01:41.081Z,7.53
2023-11-07T04:04:32.416Z,1.33
2023-11-07T04:07:23.263Z,3.95
2023-11-07T04:10:14.980Z,7.20
2023-11-07T04:13:06.610Z,5.45
2023-11-07T04:15:57.989Z,7.50
2023-11-07T04:18:49.191Z,4.70
2023-11-07T04:21:40.012Z,2.92
2023-11-07T04:24:31.974Z,4.57
2023-11-07T04:27:23.669Z,8.43
2023-11-07T04:30:14.929Z,5.15
2023-11-07T04:33:05.884Z,13.93
2023-11-07T04:35:56.846Z,21.85
2023-11-07T04:38:47.643Z,17.17
2023-11-07T04:41:38.490Z,16.20
2023-11-07T04:44:29.167Z,7.55
2023-11-07T04:47:20.291Z,5.18
2023-11-07T04:50:13.177Z,9.93
2023-11-07T04:53:05.737Z,14.68
2023-11-07T04:55:57.184Z,9.35
2023-11-07T04:58:57.117Z,8.70
2023-11-07T05:01:50.586Z,13.95
2023-11-07T05:04:41.480Z,15.98
2023-11-07T05:07:32.964Z,12.90
2023-11-07T05:10:23.809Z,13.68
2023-11-07T05:13:15.679Z,8.20
2023-11-07T05:16:07.065Z,7.25
2023-11-07T05:18:58.131Z,8.40
2023-11-07T05:21:48.963Z,11.75
2023-11-07T05:24:39.982Z,18.00
2023-11-07T05:27:30.669Z,8.45
2023-11-07T05:30:21.401Z,15.55
2023-11-07T05:33:13.625Z,9.40
2023-11-07T05:36:04.777Z,5.75
2023-11-07T05:38:57.263Z,13.57
2023-11-07T05:41:48.991Z,19.48
2023-11-07T05:44:40.447Z,5.97
2023-11-07T05:47:31.172Z,12.02
2023-11-07T05:50:26.641Z,9.73
2023-11-07T05:53:20.485Z,11.93
2023-11-07T05:56:11.179Z,14.20
2023-11-07T05:59:02.075Z,4.85
2023-11-07T06:01:52.963Z,5.32
2023-11-07T06:04:43.744Z,3.65
2023-11-07T06:07:34.861Z,13.55
2023-11-07T06:10:26.374Z,8.63
2023-11-07T06:13:17.389Z,11.63
2023-11-07T06:16:08.499Z,13.23
2023-11-07T06:18:59.323Z,10.55
2023-11-07T06:21:50.907Z,8.15
2023-11-07T06:24:42.997Z,5.88
2023-11-07T06:27:33.868Z,3.38
2023-11-07T06:30:24.589Z,6.55
2023-11-07T06:33:15.818Z,7.03
2023-11-07T06:36:07.187Z,9.60
2023-11-07T06:38:58.148Z,6.18
2023-11-07T06:41:48.921Z,5.00
2023-11-07T06:44:39.947Z,7.28
2023-11-07T06:47:30.690Z,8.25
2023-11-07T06:50:21.496Z,5.55
2023-11-07T06:53:12.313Z,3.17
2023-11-07T06:56:03.702Z,5.80
2023-11-07T06:58:54.888Z,6.22
2023-11-07T07:01:48.720Z,7.07
2023-11-07T07:04:39.431Z,7.10
2023-11-07T07:07:30.162Z,7.88
2023-11-07T07:10:21.166Z,5.90
2023-11-07T07:48:39.906Z,2.33
2023-11-07T07:51:30.743Z,2.28
2023-11-07T07:57:19.448Z,8.13
2023-11-07T08:00:13.619Z,8.48
2023-11-07T08:03:08.806Z,4.18
2023-11-07T08:06:00.195Z,6.18
2023-11-07T08:08:50.944Z,5.72
2023-11-07T08:11:42.916Z,4.80
2023-11-07T08:14:33.912Z,9.23
2023-11-07T08:17:25.059Z,6.00
2023-11-07T08:20:16.046Z,5.80
2023-11-07T08:23:07.023Z,3.03
2023-11-07T08:25:58.592Z,2.60
2023-11-07T08:28:49.355Z,1.75
2023-11-07T08:31:40.610Z,3.47
2023-11-07T08:34:33.898Z,2.45
2023-11-07T08:37:24.886Z,1.73
2023-11-07T08:40:20.956Z,4.10
2023-11-07T08:43:11.981Z,3.40
2023-11-07T08:46:02.718Z,2.50
2023-11-07T08:48:54.838Z,4.97
2023-11-07T08:51:51.388Z,1.73
2023-11-07T08:54:42.676Z,2.03
2023-11-07T08:57:38.133Z,1.20
2023-11-07T09:00:29.116Z,9.30
2023-11-07T09:03:20.156Z,1.85
2023-11-07T09:06:11.006Z,2.28
2023-11-07T09:09:01.878Z,3.83
2023-11-07T09:11:53.800Z,1.67
2023-11-07T09:14:45.684Z,3.45
2023-11-07T09:17:36.751Z,1.92
2023-11-07T09:20:27.514Z,4.00
2023-11-07T09:23:18.250Z,1.88
2023-11-07T09:26:09.818Z,1.08
2023-11-07T09:29:00.544Z,1.00
2023-11-07T09:31:53.561Z,20.35
2023-11-07T09:34:44.385Z,1.63
2023-11-07T09:37:41.473Z,2.88
2023-11-07T09:40:33.028Z,2.05
2023-11-07T09:43:28.234Z,1.92
2023-11-07T09:46:23.054Z,1.23
2023-11-07T09:49:14.617Z,4.50
2023-11-07T09:52:07.615Z,0.77
2023-11-07T09:55:00.305Z,5.15
2023-11-07T09:58:15.444Z,1.25
2023-11-07T10:01:09.120Z,1.07
2023-11-07T10:04:00.294Z,0.55
2023-11-07T10:06:51.112Z,1.10
2023-11-07T10:09:41.808Z,15.60
2023-11-07T10:12:40.069Z,2.15
2023-11-07T10:15:30.894Z,1.70
2023-11-07T10:18:21.721Z,6.38
2023-11-07T10:21:12.519Z,1.65
2023-11-07T10:24:03.647Z,0.43
2023-11-07T10:27:00.779Z,0.38
2023-11-07T10:29:59.380Z,2.33
2023-11-07T10:32:56.927Z,4.63
2023-11-07T10:35:56.233Z,1.20
2023-11-07T10:38:48.167Z,1.55
2023-11-07T10:41:39.000Z,0.60
2023-11-07T10:44:32.383Z,3.45
2023-11-07T10:47:24.199Z,2.70
2023-11-07T10:50:18.306Z,4.68
2023-11-07T10:53:09.056Z,2.55
2023-11-07T10:56:01.331Z,8.63
2023-11-07T10:59:00.322Z,3.35
2023-11-07T11:01:53.969Z,10.60
2023-11-07T11:04:49.627Z,2.15
2023-11-07T11:07:58.528Z,0.45
2023-11-07T11:10:50.193Z,3.28
2023-11-07T11:13:42.871Z,2.33
2023-11-07T11:16:34.427Z,0.70
2023-11-07T11:19:48.546Z,2.53
2023-11-07T11:22:50.170Z,3.63
2023-11-07T11:26:21.299Z,1.85
2023-11-07T11:29:29.838Z,1.90
2023-11-07T11:32:28.685Z,3.00
2023-11-07T11:35:20.355Z,8.38
2023-11-07T11:38:22.075Z,5.35
2023-11-07T11:41:12.811Z,0.60
2023-11-07T11:44:14.902Z,6.65
2023-11-07T11:47:05.881Z,3.88
2023-11-07T11:50:16.827Z,2.17
2023-11-07T11:53:10.283Z,1.60
2023-11-07T11:56:01.084Z,0.50
2023-11-07T11:59:12.215Z,2.30
2023-11-07T12:02:05.969Z,0.75
2023-11-07T12:05:19.062Z,3.28
2023-11-07T12:08:45.353Z,2.72
2023-11-07T12:11:45.787Z,2.78
2023-11-07T12:14:59.196Z,1.73
2023-11-07T12:17:52.322Z,15.48
2023-11-07T12:20:43.265Z,2.17
2023-11-07T12:23:34.060Z,0.52
2023-11-07T12:26:42.008Z,4.05
2023-11-07T12:29:39.973Z,0.60
2023-11-07T12:32:30.803Z,4.67
2023-11-07T12:35:24.259Z,6.28
2023-11-07T12:38:16.628Z,0.60
2023-11-07T12:41:08.519Z,3.75
2023-11-07T12:44:10.301Z,1.33
2023-11-07T12:47:01.766Z,2.75
2023-11-07T12:49:55.667Z,2.70
2023-11-07T12:52:59.680Z,9.13
2023-11-07T12:55:55.503Z,20.55
2023-11-07T12:58:46.864Z,6.38
2023-11-07T13:01:37.974Z,9.18
2023-11-07T13:04:28.920Z,10.70
2023-11-07T13:07:19.637Z,9.00
2023-11-07T13:10:17.263Z,8.77
2023-11-07T13:13:08.019Z,2.63
2023-11-07T13:15:58.690Z,6.25
2023-11-07T13:19:01.898Z,5.78
2023-11-07T13:21:52.836Z,1.80
2023-11-07T13:24:44.588Z,0.98
2023-11-07T13:27:35.631Z,4.75
2023-11-07T13:30:26.403Z,2.83
2023-11-07T13:33:17.343Z,2.90
2023-11-07T13:36:09.391Z,1.42
2023-11-07T13:39:00.157Z,2.28
2023-11-07T13:41:51.300Z,1.08
2023-11-07T13:44:42.040Z,2.92
2023-11-07T13:47:33.066Z,2.47
2023-11-07T13:50:24.836Z,3.70
2023-11-07T13:53:16.895Z,3.78
2023-11-07T13:56:09.926Z,2.30
2023-11-07T13:59:01.919Z,4.07
2023-11-07T14:01:52.785Z,8.80
2023-11-07T14:04:43.516Z,8.30
2023-11-07T14:07:34.395Z,4.35
2023-11-07T14:10:25.760Z,7.40
2023-11-07T14:13:16.466Z,7.50
2023-11-07T14:16:07.505Z,9.23
2023-11-07T14:18:58.431Z,7.82
2023-11-07T14:21:50.989Z,5.93
2023-11-07T14:24:42.011Z,5.18
2023-11-07T14:27:33.273Z,9.18
2023-11-07T14:33:19.618Z,7.28
2023-11-07T14:36:12.543Z,10.38
2023-11-07T14:39:04.834Z,11.90
2023-11-07T14:41:55.665Z,9.25
2023-11-07T14:44:46.679Z,7.60
2023-11-07T14:47:44.908Z,12.18
2023-11-07T14:50:40.427Z,10.00
2023-11-07T14:53:31.632Z,9.48
2023-11-07T14:56:24.101Z,10.65
2023-11-07T14:59:16.637Z,31.23
2023-11-07T15:02:14.546Z,18.17
2023-11-07T15:05:12.975Z,34.88
2023-11-07T15:08:03.899Z,32.92
2023-11-07T15:10:54.730Z,22.95
2023-11-07T15:13:45.513Z,18.60
2023-11-07T15:16:36.224Z,18.63
2023-11-07T15:19:26.949Z,9.57
2023-11-07T15:22:17.747Z,9.95
2023-11-07T15:25:17.849Z,10.43
2023-11-07T15:28:08.621Z,6.00
2023-11-07T15:30:59.363Z,9.98
2023-11-07T15:33:50.995Z,14.00
2023-11-07T15:36:41.762Z,40.78
2023-11-07T15:39:32.673Z,26.17
2023-11-07T15:42:24.444Z,23.33
2023-11-07T15:45:15.548Z,28.15
2023-11-07T15:48:09.628Z,31.08
2023-11-07T15:51:02.313Z,30.20
2023-11-07T15:53:53.067Z,12.60
2023-11-07T15:56:50.163Z,6.15
2023-11-07T15:59:40.984Z,10.02
2023-11-07T16:02:31.790Z,6.22
2023-11-07T16:05:27.651Z,9.07
2023-11-07T16:08:18.784Z,10.68
2023-11-07T16:11:09.503Z,8.10
2023-11-07T16:14:00.211Z,24.17
2023-11-07T16:16:50.985Z,11.18
2023-11-07T16:19:41.940Z,26.00
2023-11-07T16:22:32.706Z,37.40
2023-11-07T16:25:24.864Z,15.82
2023-11-07T16:28:15.800Z,24.25
2023-11-07T16:31:06.803Z,21.48
2023-11-07T16:34:01.354Z,9.48
2023-11-07T16:36:52.600Z,28.92
2023-11-07T16:39:43.355Z,11.63
2023-11-07T16:42:34.174Z,28.58
2023-11-07T16:45:25.192Z,19.50
2023-11-07T16:48:16.005Z,7.50
2023-11-07T16:51:09.344Z,7.25
2023-11-07T16:54:00.357Z,15.00
2023-11-07T16:56:51.034Z,22.13
2023-11-07T16:59:43.271Z,8.23
2023-11-07T17:02:34.050Z,18.10
2023-11-07T17:05:25.018Z,13.73
2023-11-07T17:08:16.102Z,20.77
2023-11-07T17:11:06.856Z,9.20
2023-11-07T17:14:00.525Z,6.07
2023-11-07T17:16:51.275Z,13.75
2023-11-07T17:19:45.531Z,17.35
2023-11-07T17:22:37.036Z,18.23
2023-11-07T17:25:27.880Z,12.85
2023-11-07T17:28:21.266Z,20.17
2023-11-07T17:31:13.815Z,18.65
2023-11-07T17:34:08.267Z,18.00
2023-11-07T17:36:59.539Z,19.52
2023-11-07T17:39:50.517Z,19.67
2023-11-07T17:42:41.276Z,26.88
2023-11-07T17:45:31.972Z,27.40
2023-11-07T17:48:23.867Z,15.73
2023-11-07T17:51:23.508Z,16.60
2023-11-07T17:54:14.598Z,9.60
2023-11-07T17:57:05.714Z,34.45
2023-11-07T17:59:57.105Z,20.23
2023-11-07T18:02:47.903Z,20.42
2023-11-07T18:05:38.966Z,14.18
2023-11-07T18:08:29.905Z,20.33
2023-11-07T18:11:22.750Z,14.40
2023-11-07T18:14:15.250Z,14.50
2023-11-07T18:17:06.159Z,15.27
2023-11-07T18:19:57.168Z,21.33
2023-11-07T18:22:49.810Z,15.43
2023-11-07T18:25:40.648Z,9.68
2023-11-07T18:28:32.557Z,20.45
2023-11-07T18:31:23.222Z,23.23
2023-11-07T18:34:20.991Z,68.18
2023-11-07T18:37:14.280Z,31.50
2023-11-07T18:40:07.000Z,38.97
2023-11-07T18:42:57.752Z,34.35
2023-11-07T18:45:48.597Z,44.13
2023-11-07T18:48:39.700Z,32.28
2023-11-07T18:51:32.660Z,41.88
2023-11-07T18:54:23.877Z,36.85
2023-11-07T18:57:14.946Z,36.72
2023-11-07T19:00:09.696Z,33.80
2023-11-07T19:03:00.577Z,34.38
2023-11-07T19:05:51.450Z,31.45
2023-11-07T19:08:42.115Z,31.35
2023-11-07T19:11:33.195Z,22.23
2023-11-07T19:14:23.879Z,32.78
2023-11-07T19:17:14.695Z,23.92
2023-11-07T19:20:07.120Z,25.05
2023-11-07T19:22:57.815Z,25.40
2023-11-07T19:25:48.634Z,19.90
2023-11-07T19:28:39.342Z,21.55
2023-11-07T19:31:31.864Z,19.83
2023-11-07T19:34:23.425Z,17.08
2023-11-07T19:37:14.724Z,18.88
2023-11-07T19:40:08.987Z,26.60
2023-11-07T19:43:00.157Z,46.17
2023-11-07T19:45:50.859Z,41.45
2023-11-07T19:48:42.507Z,32.08
2023-11-07T19:51:33.531Z,27.60
2023-11-07T19:54:24.455Z,16.65
2023-11-07T19:57:16.031Z,31.00
2023-11-07T20:00:10.031Z,20.85
2023-11-07T20:03:01.411Z,29.40
2023-11-07T20:05:52.281Z,38.05
2023-11-07T20:08:43.198Z,26.73
2023-11-07T20:11:36.105Z,25.88
2023-11-07T20:14:27.982Z,37.58
2023-11-07T20:17:19.187Z,37.13
2023-11-07T20:20:10.693Z,17.52
2023-11-07T20:23:01.435Z,29.35
2023-11-07T20:25:52.608Z,19.90
2023-11-07T20:28:43.335Z,23.00
2023-11-07T20:31:34.246Z,28.40
2023-11-07T20:34:25.136Z,15.07
2023-11-07T20:37:17.020Z,18.13
2023-11-07T20:40:11.119Z,31.83
2023-11-07T20:43:10.345Z,26.02
2023-11-07T20:46:03.083Z,39.40
2023-11-07T20:48:53.800Z,18.30
2023-11-07T20:51:44.690Z,16.90
2023-11-07T20:54:35.616Z,20.63
2023-11-07T20:57:26.409Z,14.30
2023-11-07T21:00:17.827Z,25.23
2023-11-07T21:03:08.691Z,14.52
2023-11-07T21:05:59.545Z,28.27
2023-11-07T21:08:52.350Z,18.10
2023-11-07T21:11:43.389Z,30.77
2023-11-07T21:14:35.221Z,22.77
2023-11-07T21:17:26.225Z,16.38
2023-11-07T21:20:17.016Z,21.98
2023-11-07T21:23:07.677Z,18.75
2023-11-07T21:25:58.436Z,18.63
2023-11-07T21:28:50.935Z,24.08
2023-11-07T21:31:42.248Z,17.23
2023-11-07T21:34:32.975Z,17.70
2023-11-07T21:37:23.776Z,22.40
2023-11-07T21:40:15.028Z,26.17
2023-11-07T21:43:05.754Z,37.90
2023-11-07T21:45:56.475Z,24.98
2023-11-07T21:48:47.467Z,33.40
2023-11-07T21:51:38.405Z,23.15
2023-11-07T21:54:29.204Z,28.10
2023-11-07T21:57:21.234Z,24.60
2023-11-07T22:00:16.058Z,21.08
2023-11-07T22:03:07.279Z,20.13
2023-11-07T22:05:59.884Z,17.67
2023-11-07T22:08:50.868Z,18.83
2023-11-07T22:11:41.585Z,15.52
2023-11-07T22:14:32.927Z,11.38
2023-11-07T22:17:23.768Z,22.23
2023-11-07T22:20:16.085Z,14.40
2023-11-07T22:23:06.804Z,14.85
2023-11-07T22:25:57.622Z,19.60
2023-11-07T22:28:48.377Z,15.95
2023-11-07T22:31:39.097Z,14.52
2023-11-07T22:34:29.852Z,18.98
2023-11-07T22:37:20.682Z,16.73
2023-11-07T22:40:11.831Z,18.98
2023-11-07T22:43:02.670Z,11.23
2023-11-07T22:45:53.332Z,21.52
2023-11-07T22:48:44.187Z,29.98
2023-11-07T22:51:34.990Z,32.85
2023-11-07T22:54:25.713Z,20.42
2023-11-07T22:57:16.483Z,16.55
2023-11-07T23:00:12.290Z,14.18
2023-11-07T23:03:03.549Z,12.63
2023-11-07T23:05:54.394Z,10.98
2023-11-07T23:08:45.085Z,24.63
2023-11-07T23:11:35.769Z,28.75
2023-11-07T23:14:28.384Z,10.70
2023-11-07T23:17:19.212Z,17.02
2023-11-07T23:20:11.002Z,7.53
2023-11-07T23:23:01.896Z,9.18
2023-11-07T23:25:52.844Z,7.50
2023-11-07T23:28:43.576Z,5.22
2023-11-07T23:31:34.978Z,8.30
2023-11-07T23:34:25.790Z,12.60
2023-11-07T23:37:16.557Z,11.40
2023-11-07T23:40:12.010Z,18.60
2023-11-07T23:43:03.492Z,11.40
2023-11-07T23:45:54.217Z,6.75
2023-11-07T23:48:44.927Z,8.73
2023-11-07T23:51:35.688Z,7.30
2023-11-07T23:54:26.507Z,6.30
2023-11-07T23:57:17.253Z,8.57
